Time;durP1;ratioP1;P1;durP2;ratioP2;P2;SDS_P1;SDS_P2;PMS_P1;PMS_P2;Temp;Humidity;BMP_temperature;BMP_pressure;BME280_temperature;BME280_humidity;BME280_pressure;Samples;Min_cycle;Max_cycle;Signal;HPM_P1;HPM_P2
2023/01/05 00:00:09;;;;;;;20.98;4.00;;;;;;;-148.88;100.00;75793.47;5015466;28;20018;-77
2023/01/05 00:02:35;;;;;;;11.40;2.10;;;;;;;-148.88;100.00;75781.28;5017340;28;20029;-78
2023/01/05 00:05:00;;;;;;;18.42;4.28;;;;;;;-148.88;100.00;75787.38;5000836;28;20018;-78
2023/01/05 00:07:25;;;;;;;14.63;2.50;;;;;;;-148.88;100.00;75781.28;4999525;28;20120;-78
2023/01/05 00:09:50;;;;;;;15.98;4.07;;;;;;;-148.88;100.00;75779.25;4999093;28;20029;-79
2023/01/05 00:23:19;;;;;;;21.10;4.40;;;;;;;-148.88;100.00;75793.47;5017834;28;20512;-78
2023/01/05 00:25:45;;;;;;;18.05;3.45;;;;;;;-148.88;100.00;75813.78;4999956;28;20041;-78
2023/01/05 00:28:10;;;;;;;17.58;3.22;;;;;;;-148.88;100.00;75801.59;4998608;28;20022;-78
2023/01/05 00:30:41;;;;;;;23.90;5.07;;;;;;;-148.88;100.00;75799.56;5017246;28;20026;-77
2023/01/05 00:33:11;;;;;;;24.98;5.22;;;;;;;-148.88;100.00;75809.72;5016923;28;20511;-78
2023/01/05 00:35:37;;;;;;;23.38;5.35;;;;;;;-148.88;100.00;75836.13;4999876;28;20478;-79
2023/01/05 00:38:04;;;;;;;21.73;4.78;;;;;;;-148.88;100.00;75815.81;4998926;28;20025;-78
2023/01/05 00:40:30;;;;;;;11.50;2.58;;;;;;;-148.88;100.00;75823.94;5016958;28;20366;-79
2023/01/05 00:42:55;;;;;;;20.45;4.47;;;;;;;-148.88;100.00;75809.72;5016203;28;20026;-79
2023/01/05 00:45:20;;;;;;;19.52;5.07;;;;;;;-148.88;100.00;75805.66;4999585;28;20155;-78
2023/01/05 00:47:46;;;;;;;11.13;3.15;;;;;;;-148.88;100.00;75809.72;4998679;28;20473;-78
2023/01/05 00:50:14;;;;;;;18.50;4.40;;;;;;;-148.88;100.00;75823.94;5016561;28;20029;-78
2023/01/05 00:52:40;;;;;;;10.50;2.55;;;;;;;-148.88;100.00;75815.81;5016619;28;20026;-78
2023/01/05 00:55:06;;;;;;;12.95;2.60;;;;;;;-148.88;100.00;75830.03;4998948;28;20022;-78
2023/01/05 00:57:31;;;;;;;18.17;4.20;;;;;;;-148.88;100.00;75809.72;5016994;28;20026;-78
2023/01/05 00:59:56;;;;;;;18.02;4.05;;;;;;;-148.88;100.00;75813.78;4998861;28;20029;-78
2023/01/05 01:02:22;;;;;;;13.93;3.08;;;;;;;-148.88;100.00;75809.72;5015336;28;20112;-78
2023/01/05 01:04:47;;;;;;;10.93;2.33;;;;;;;-148.88;100.00;75838.16;4997334;28;20026;-78
2023/01/05 01:07:12;;;;;;;14.68;3.05;;;;;;;-148.88;100.00;75813.78;5015176;28;20520;-78
2023/01/05 01:09:39;;;;;;;16.88;4.57;;;;;;;-148.88;100.00;75821.91;4997610;28;20022;-78
2023/01/05 01:12:05;;;;;;;16.08;4.07;;;;;;;-148.88;100.00;75828.00;5015270;28;20076;-78
2023/01/05 01:14:30;;;;;;;20.63;4.03;;;;;;;-148.88;100.00;75834.09;4997508;28;20025;-78
2023/01/05 01:16:55;;;;;;;10.63;2.03;;;;;;;-148.88;100.00;75834.09;4997965;28;20116;-78
2023/01/05 01:19:24;;;;;;;20.60;4.88;;;;;;;-148.88;100.00;75832.06;4997162;28;20021;-78
2023/01/05 01:21:49;;;;;;;19.80;4.50;;;;;;;-148.88;100.00;75838.16;4997216;28;20025;-78
2023/01/05 01:24:17;;;;;;;10.40;2.80;;;;;;;-148.88;100.00;75834.09;4997232;28;20049;-78
2023/01/05 01:26:44;;;;;;;24.48;4.53;;;;;;;-148.88;100.00;75842.22;5015121;28;20034;-78
2023/01/05 01:29:09;;;;;;;23.60;4.35;;;;;;;-148.88;100.00;75838.16;5015370;28;20029;-78
2023/01/05 01:31:36;;;;;;;15.77;3.53;;;;;;;-148.88;100.00;75834.09;4997524;28;20026;-78
2023/01/05 01:34:01;;;;;;;17.73;4.28;;;;;;;-148.88;100.00;75850.34;5014535;28;20022;-78
2023/01/05 01:36:27;;;;;;;15.90;3.15;;;;;;;-148.88;100.00;75846.28;5014878;28;20030;-78
2023/01/05 01:38:52;;;;;;;18.95;4.32;;;;;;;-148.88;100.00;75852.38;5013849;28;20075;-77
2023/01/05 01:41:17;;;;;;;21.77;4.53;;;;;;;-148.88;100.00;75854.41;5015978;28;20381;-78
2023/01/05 01:43:44;;;;;;;14.55;2.55;;;;;;;-148.88;100.00;75856.44;4999043;28;20112;-77
2023/01/05 01:46:11;;;;;;;16.27;2.70;;;;;;;-148.88;100.00;75854.41;4997377;28;20072;-78
2023/01/05 01:48:41;;;;;;;21.10;3.63;;;;;;;-148.88;100.00;75856.44;5015074;28;20025;-78
2023/01/05 01:51:14;;;;;;;12.77;2.42;;;;;;;-148.88;100.00;75860.50;5015655;28;20037;-78
2023/01/05 01:53:43;;;;;;;20.40;3.25;;;;;;;-148.88;100.00;75850.34;5019148;28;20029;-78
2023/01/05 01:56:11;;;;;;;22.33;5.00;;;;;;;-148.88;100.00;75856.44;5018492;28;20026;-78
2023/01/05 01:58:37;;;;;;;23.13;5.43;;;;;;;-148.88;100.00;75870.66;5000324;28;20396;-78
2023/01/05 02:01:02;;;;;;;17.63;4.38;;;;;;;-148.88;100.00;75874.72;5018587;28;20018;-78
2023/01/05 02:03:30;;;;;;;16.50;3.80;;;;;;;-148.88;100.00;75870.66;5018726;28;20061;-77
2023/01/05 02:05:56;;;;;;;22.48;5.40;;;;;;;-148.88;100.00;75878.78;5000881;28;20029;-78
2023/01/05 02:08:30;;;;;;;15.05;2.47;;;;;;;-148.88;100.00;75874.72;5018871;28;20025;-78
2023/01/05 02:11:12;;;;;;;;;;;;;;;-148.88;100.00;75893.00;5018498;28;20026;-78
2023/01/05 02:13:47;;;;;;;15.18;2.28;;;;;;;-148.88;100.00;75893.00;5017977;28;19960;-78
2023/01/05 02:17:02;;;;;;;17.67;2.97;;;;;;;-148.88;100.00;75888.94;5018258;28;20109;-78
2023/01/05 02:20:04;;;;;;;21.40;3.45;;;;;;;-148.88;100.00;75884.88;5007165;28;20041;-78
2023/01/05 02:22:40;;;;;;;14.27;2.58;;;;;;;-148.88;100.00;75874.72;5017663;28;20033;-77
2023/01/05 02:25:43;;;;;;;15.65;2.70;;;;;;;-148.88;100.00;75880.81;5017891;28;20033;-78
2023/01/05 02:28:30;;;;;;;12.68;2.28;;;;;;;-148.88;100.00;75878.78;5017782;28;20049;-78
2023/01/05 02:31:03;;;;;;;16.52;2.63;;;;;;;-148.88;100.00;75880.81;5018601;28;20018;-78
2023/01/05 02:33:53;;;;;;;11.52;3.08;;;;;;;-148.88;100.00;75874.72;5000168;28;20121;-78
2023/01/05 02:36:33;;;;;;;22.45;4.93;;;;;;;-148.88;100.00;75878.78;5018379;28;20026;-78
2023/01/05 02:39:14;;;;;;;21.45;5.07;;;;;;;-148.88;100.00;75878.78;5000151;28;20112;-78
2023/01/05 02:41:48;;;;;;;20.02;5.03;;;;;;;-148.88;100.00;75868.63;5017697;28;20026;-78
2023/01/05 02:44:18;;;;;;;23.40;4.90;;;;;;;-148.88;100.00;75886.91;5017460;28;20021;-78
2023/01/05 02:46:45;;;;;;;15.23;2.45;;;;;;;-148.88;100.00;75882.84;4999957;28;20022;-78
2023/01/05 02:49:15;;;;;;;15.02;2.63;;;;;;;-148.88;100.00;75886.91;4999391;28;20049;-78
2023/01/05 02:51:48;;;;;;;15.93;2.85;;;;;;;-148.88;100.00;75886.91;4999103;28;20022;-77
2023/01/05 02:54:35;;;;;;;21.80;4.82;;;;;;;-148.88;100.00;75895.03;5017285;28;20033;-78
2023/01/05 02:57:12;;;;;;;18.92;4.63;;;;;;;-148.88;100.00;75890.97;5000294;28;20439;-78
2023/01/05 02:59:45;;;;;;;13.85;2.67;;;;;;;-148.88;100.00;75882.84;5000009;28;20075;-78
2023/01/05 03:02:25;;;;;;;14.35;2.28;;;;;;;-148.88;100.00;75897.06;5016948;28;20537;-78
2023/01/05 03:08:20;;;;;;;16.80;3.08;;;;;;;-148.88;100.00;75901.13;5016929;28;20392;-78
2023/01/05 03:13:45;;;;;;;15.93;3.08;;;;;;;-148.88;100.00;75911.28;5016324;28;20037;-78
2023/01/05 03:16:17;;;;;;;16.35;2.67;;;;;;;-148.88;100.00;75907.22;4998805;28;20022;-78
2023/01/05 03:21:29;;;;;;;15.18;2.75;;;;;;;-148.88;100.00;75964.09;5016848;28;20029;-78
2023/01/05 03:37:59;;;;;;;14.15;3.08;;;;;;;-148.88;100.00;75968.16;5016705;28;20389;-78
2023/01/05 03:40:30;;;;;;;15.10;2.25;;;;;;;-148.88;100.00;75958.00;5016267;23;20128;-80
2023/01/05 03:42:56;;;;;;;17.23;5.07;;;;;;;-148.88;100.00;75964.09;5022129;28;20022;-80
2023/01/05 03:45:23;;;;;;;13.32;2.75;;;;;;;-148.88;100.00;75962.06;5000222;28;20390;-79
2023/01/05 03:47:49;;;;;;;12.50;2.72;;;;;;;-148.88;100.00;75984.41;4998709;28;20026;-79
2023/01/05 03:50:15;;;;;;;9.75;2.38;;;;;;;-148.88;100.00;75984.41;4981611;28;20401;-79
2023/01/05 03:52:40;;;;;;;8.55;2.22;;;;;;;-148.88;100.00;75984.41;4981016;28;20027;-80
2023/01/05 03:55:06;;;;;;;14.82;2.85;;;;;;;-148.88;100.00;75994.56;4999288;28;20395;-80
2023/01/05 03:57:31;;;;;;;16.92;5.07;;;;;;;-148.88;100.00;75992.53;4999438;28;20137;-80
2023/01/05 03:59:57;;;;;;;17.17;3.85;;;;;;;-148.88;100.00;76000.66;4998879;28;20101;-79
2023/01/05 04:02:22;;;;;;;16.48;3.53;;;;;;;-148.88;100.00;76000.66;4979212;28;20077;-79
2023/01/05 04:04:47;;;;;;;16.85;3.80;;;;;;;-148.88;100.00;75996.59;4996293;28;20471;-78
2023/01/05 04:07:12;;;;;;;9.93;2.10;;;;;;;-148.88;100.00;76010.81;4996828;28;20022;-78
2023/01/05 04:09:38;;;;;;;19.08;4.63;;;;;;;-148.88;100.00;76029.09;4996897;28;20030;-79
2023/01/05 04:12:03;;;;;;;14.15;2.60;;;;;;;-148.88;100.00;76020.97;4980335;28;20034;-79
2023/01/05 04:14:28;;;;;;;17.88;3.63;;;;;;;-148.88;100.00;76031.13;4980289;28;20022;-79
2023/01/05 04:16:54;;;;;;;20.80;5.38;;;;;;;-148.88;100.00;76025.03;4979543;28;20033;-79
2023/01/05 04:19:19;;;;;;;18.90;4.80;;;;;;;-148.88;100.00;76027.06;4997866;28;20022;-80
2023/01/05 04:21:44;;;;;;;13.20;3.33;;;;;;;-148.88;100.00;76020.97;4997544;28;20038;-79
2023/01/05 04:24:10;;;;;;;15.32;3.38;;;;;;;-148.88;100.00;76039.25;4997503;28;20027;-79
2023/01/05 04:26:36;;;;;;;20.85;3.58;;;;;;;-148.88;100.00;76053.47;4980090;28;20391;-79
2023/01/05 04:29:02;;;;;;;20.90;3.08;;;;;;;-148.88;100.00;76053.47;4979724;28;20418;-79
2023/01/05 04:31:30;;;;;;;25.90;5.63;;;;;;;-148.88;100.00;76057.53;4997257;28;20494;-79
2023/01/05 04:33:56;;;;;;;20.20;5.10;;;;;;;-148.88;100.00;76039.25;4997607;28;20034;-79
2023/01/05 04:36:21;;;;;;;14.48;3.75;;;;;;;-148.88;100.00;76053.47;4980032;28;20157;-79
2023/01/05 04:38:46;;;;;;;14.70;3.45;;;;;;;-148.88;100.00;76051.44;4996215;28;20029;-78
2023/01/05 04:41:11;;;;;;;18.05;3.28;;;;;;;-148.88;100.00;76057.53;4995685;28;20026;-78
2023/01/05 04:43:37;;;;;;;21.98;3.50;;;;;;;-148.88;100.00;76063.63;4995848;28;20105;-78
2023/01/05 04:46:02;;;;;;;23.50;3.80;;;;;;;-148.88;100.00;76063.63;4995962;28;20018;-79
2023/01/05 04:48:27;;;;;;;21.65;3.55;;;;;;;-148.88;100.00;76061.59;4996241;28;20038;-79
2023/01/05 04:50:54;;;;;;;23.15;5.15;;;;;;;-148.88;100.00;76067.69;4978918;28;20034;-79
2023/01/05 04:53:21;;;;;;;16.58;2.88;;;;;;;-148.88;100.00;76065.66;4996330;28;20081;-79
2023/01/05 04:55:46;;;;;;;12.60;3.20;;;;;;;-148.88;100.00;76053.47;4996589;28;20026;-79
2023/01/05 04:58:12;;;;;;;14.30;3.15;;;;;;;-148.88;100.00;76065.66;4977928;28;20026;-80
2023/01/05 05:00:37;;;;;;;16.80;3.58;;;;;;;-148.88;100.00;76067.69;4996028;28;20026;-79
2023/01/05 05:03:03;;;;;;;16.30;3.45;;;;;;;-148.88;100.00;76069.72;4978144;28;20022;-79
2023/01/05 05:05:28;;;;;;;20.98;2.70;;;;;;;-148.88;100.00;76057.53;4996148;28;20387;-79
2023/01/05 05:07:53;;;;;;;21.63;5.70;;;;;;;-148.88;100.00;76053.47;4996453;28;20030;-79
2023/01/05 05:10:19;;;;;;;14.48;2.80;;;;;;;-148.88;100.00;76057.53;4996289;28;20042;-79
2023/01/05 05:12:44;;;;;;;23.00;3.42;;;;;;;-148.88;100.00;76057.53;4996736;28;20034;-78
2023/01/05 05:15:10;;;;;;;30.25;5.43;;;;;;;-148.88;100.00;76047.38;4995139;28;20049;-78
2023/01/05 05:17:35;;;;;;;15.30;3.15;;;;;;;-148.88;100.00;76069.72;4977241;28;20022;-78
2023/01/05 05:20:00;;;;;;;15.00;3.35;;;;;;;-148.88;100.00;76073.78;4995036;28;20053;-78
2023/01/05 05:22:27;;;;;;;17.45;3.53;;;;;;;-148.88;100.00;76079.88;4995018;28;20042;-78
2023/01/05 05:24:52;;;;;;;21.77;3.17;;;;;;;-148.88;100.00;76069.72;4977710;28;20045;-78
2023/01/05 05:27:17;;;;;;;21.70;5.10;;;;;;;-148.88;100.00;76077.84;4995037;28;20109;-78
2023/01/05 05:29:42;;;;;;;18.33;2.72;;;;;;;-148.88;100.00;76090.03;4995166;28;20029;-78
2023/01/05 05:32:08;;;;;;;21.83;2.80;;;;;;;-148.88;100.00;76085.97;4977507;28;20026;-78
2023/01/05 05:34:33;;;;;;;15.43;3.05;;;;;;;-148.88;100.00;76098.16;4995671;28;20022;-79
2023/01/05 05:36:58;;;;;;;14.82;2.88;;;;;;;-148.88;100.00;76094.09;4996084;28;20019;-79
2023/01/05 05:39:24;;;;;;;17.38;2.88;;;;;;;-148.88;100.00;76110.34;4978349;28;20096;-79
2023/01/05 05:41:49;;;;;;;17.75;3.08;;;;;;;-148.88;100.00;76118.47;4978323;28;20041;-79
2023/01/05 05:44:17;;;;;;;20.52;2.90;;;;;;;-148.88;100.00;76126.59;4978389;28;20089;-79
2023/01/05 05:46:44;;;;;;;16.13;2.78;;;;;;;-148.88;100.00;76114.41;4995501;28;20023;-79
2023/01/05 05:49:09;;;;;;;14.27;3.60;;;;;;;-148.88;100.00;76118.47;4978289;28;20061;-79
2023/01/05 05:51:35;;;;;;;12.95;2.42;;;;;;;-148.88;100.00;76118.47;4977607;28;20117;-78
2023/01/05 05:54:00;;;;;;;18.05;3.40;;;;;;;-148.88;100.00;76122.56;4976594;28;20080;-79
2023/01/05 05:56:25;;;;;;;14.48;3.42;;;;;;;-148.88;100.00;76130.69;4976868;28;20029;-79
2023/01/05 05:58:51;;;;;;;14.40;3.10;;;;;;;-148.88;100.00;76138.81;4977131;28;20026;-79
2023/01/05 06:01:16;;;;;;;23.52;6.30;;;;;;;-148.88;100.00;76126.59;4994846;28;20080;-79
2023/01/05 06:03:41;;;;;;;13.15;3.13;;;;;;;-148.88;100.00;76128.66;4978157;28;20380;-79
2023/01/05 06:06:07;;;;;;;23.38;4.22;;;;;;;-148.88;100.00;76130.69;4978039;28;20082;-80
2023/01/05 06:08:32;;;;;;;16.85;3.85;;;;;;;-148.88;100.00;76130.69;4978328;28;20022;-80
2023/01/05 06:10:57;;;;;;;15.63;2.97;;;;;;;-148.88;100.00;76136.78;4995334;28;20023;-80
2023/01/05 06:13:23;;;;;;;16.40;3.40;;;;;;;-148.88;100.00;76138.81;4995275;28;20031;-79
2023/01/05 06:15:49;;;;;;;23.60;3.65;;;;;;;-148.88;100.00;76142.88;4995319;28;20048;-79
2023/01/05 06:18:15;;;;;;;20.75;4.50;;;;;;;-148.88;100.00;76138.81;5006053;28;20022;-78
2023/01/05 06:20:41;;;;;;;23.38;4.53;;;;;;;-148.88;100.00;76146.94;5008568;28;20023;-78
2023/01/05 06:23:06;;;;;;;26.63;6.22;;;;;;;-148.88;100.00;76136.78;4986180;28;20038;-80
2023/01/05 06:25:32;;;;;;;12.23;3.22;;;;;;;-148.88;100.00;76118.47;4996820;28;20149;-80
2023/01/05 06:27:58;;;;;;;20.52;3.65;;;;;;;-148.88;100.00;76142.88;4995953;28;20504;-78
2023/01/05 06:30:24;;;;;;;11.77;2.88;;;;;;;-148.88;100.00;76136.78;4994869;28;20393;-78
2023/01/05 06:32:49;;;;;;;16.55;3.10;;;;;;;-148.88;100.00;76140.84;4994827;28;20034;-79
2023/01/05 06:35:14;;;;;;;16.02;3.40;;;;;;;-148.88;100.00;76122.56;4977224;28;20018;-79
2023/01/05 06:37:39;;;;;;;18.77;3.88;;;;;;;-148.88;100.00;76142.88;4977917;28;20026;-79
2023/01/05 06:40:05;;;;;;;18.83;3.28;;;;;;;-148.88;100.00;76142.88;4978497;28;20030;-79
2023/01/05 06:42:31;;;;;;;13.35;3.75;;;;;;;-148.88;100.00;76159.13;4981898;28;20487;-79
2023/01/05 06:44:57;;;;;;;15.68;3.30;;;;;;;-148.88;100.00;76155.06;4998922;28;20015;-80
2023/01/05 06:47:22;;;;;;;21.17;5.97;;;;;;;-148.88;100.00;76165.22;4980931;28;20027;-79
2023/01/05 06:49:47;;;;;;;15.70;3.92;;;;;;;-148.88;100.00;76171.31;4981272;28;20414;-79
2023/01/05 06:52:13;;;;;;;23.25;3.50;;;;;;;-148.88;100.00;76173.34;4998544;28;20029;-80
2023/01/05 06:54:38;;;;;;;25.15;6.40;;;;;;;-148.88;100.00;76179.44;4980751;28;20034;-80
2023/01/05 06:57:05;;;;;;;14.63;4.18;;;;;;;-148.88;100.00;76189.59;4981191;28;20524;-80
2023/01/05 06:59:30;;;;;;;14.23;3.30;;;;;;;-148.88;100.00;76187.56;4998316;28;20081;-79
2023/01/05 07:01:56;;;;;;;16.65;3.63;;;;;;;-148.88;100.00;76195.69;4980794;28;20026;-79
2023/01/05 07:04:23;;;;;;;18.55;3.83;;;;;;;-148.88;100.00;76213.97;4998549;28;20030;-81
2023/01/05 07:06:48;;;;;;;19.63;4.05;;;;;;;-148.88;100.00;76222.09;4980042;28;20037;-81
2023/01/05 07:09:14;;;;;;;24.67;7.40;;;;;;;-148.88;100.00;76222.09;4997789;28;20383;-80
2023/01/05 07:11:39;;;;;;;19.05;4.18;;;;;;;-148.88;100.00;76226.16;4997685;28;20030;-80
2023/01/05 07:14:04;;;;;;;16.08;3.35;;;;;;;-148.88;100.00;76220.06;4980777;28;20024;-82
2023/01/05 07:16:30;;;;;;;16.63;4.53;;;;;;;-148.88;100.00;76220.06;4998349;28;20077;-79
2023/01/05 07:18:55;;;;;;;15.32;3.85;;;;;;;-148.88;100.00;76232.25;4997899;28;20022;-78
2023/01/05 07:21:20;;;;;;;18.13;3.80;;;;;;;-148.88;100.00;76244.44;5001485;28;20045;-80
2023/01/05 07:23:45;;;;;;;17.17;3.75;;;;;;;-148.88;100.00;76240.38;4985048;28;20026;-80
2023/01/05 07:26:11;;;;;;;10.90;2.70;;;;;;;-148.88;100.00;76234.28;4983629;28;20030;-80
2023/01/05 07:28:37;;;;;;;18.77;3.80;;;;;;;-148.88;100.00;76228.19;4982634;28;20026;-80
2023/01/05 07:31:02;;;;;;;15.63;3.50;;;;;;;-148.88;100.00;76244.44;4983126;28;20025;-80
2023/01/05 07:33:27;;;;;;;19.00;5.60;;;;;;;-148.88;100.00;76248.50;4983721;28;20018;-79
2023/01/05 07:35:53;;;;;;;15.45;4.18;;;;;;;-148.88;100.00;76254.59;4982746;28;20080;-78
2023/01/05 07:38:18;;;;;;;14.93;3.40;;;;;;;-148.88;100.00;76254.59;4982059;28;20049;-81
2023/01/05 07:40:44;;;;;;;16.95;3.45;;;;;;;-148.88;100.00;76240.38;4997657;28;20037;-79
2023/01/05 07:43:09;;;;;;;16.13;4.50;;;;;;;-148.88;100.00;76236.31;4978710;28;20030;-78
2023/01/05 07:45:34;;;;;;;11.13;3.30;;;;;;;-148.88;100.00;76244.44;4996967;28;20045;-78
2023/01/05 07:48:01;;;;;;;12.95;3.40;;;;;;;-148.88;100.00;76238.34;4997165;28;20030;-79
2023/01/05 07:50:26;;;;;;;13.73;3.40;;;;;;;-148.88;100.00;76236.31;4997180;28;20498;-76
2023/01/05 07:52:51;;;;;;;16.90;4.28;;;;;;;-148.88;100.00;76242.41;4980225;28;20041;-78
2023/01/05 07:55:16;;;;;;;11.38;3.67;;;;;;;-148.88;100.00;76238.34;4980197;28;20022;-79
2023/01/05 07:57:42;;;;;;;9.82;3.42;;;;;;;-148.88;100.00;76240.38;4979777;28;20037;-78
2023/01/05 08:00:10;;;;;;;19.13;3.88;;;;;;;-148.88;100.00;76240.38;4997568;28;20026;-78
2023/01/05 08:02:35;;;;;;;12.20;3.38;;;;;;;-148.88;100.00;76240.38;4980309;28;20037;-78
2023/01/05 08:05:00;;;;;;;10.18;2.70;;;;;;;-148.88;100.00;76228.19;4980338;28;20391;-78
2023/01/05 08:07:25;;;;;;;16.25;3.85;;;;;;;-148.88;100.00;76238.34;4997042;28;20097;-79
2023/01/05 08:13:58;;;;;;;11.98;3.00;;;;;;;-148.88;100.00;76234.28;4997925;28;20084;-78
2023/01/05 08:15:20;;;;;;;16.60;3.53;;;;;;;-148.88;100.00;76242.41;4997687;28;20038;-78
2023/01/05 08:17:45;;;;;;;10.38;3.33;;;;;;;-148.88;100.00;76244.44;4997076;28;20033;-77
2023/01/05 08:20:10;;;;;;;11.15;2.85;;;;;;;-148.88;100.00;76244.44;4996126;28;20478;-77
2023/01/05 08:22:35;;;;;;;10.25;2.65;;;;;;;-148.88;100.00;76254.59;4978380;28;20018;-79
2023/01/05 08:25:01;;;;;;;15.95;3.47;;;;;;;-148.88;100.00;76248.50;4996589;28;20022;-79
2023/01/05 08:27:26;;;;;;;21.33;5.30;;;;;;;-148.88;100.00;76246.47;4979525;28;20026;-80
2023/01/05 08:29:51;;;;;;;19.23;3.55;;;;;;;-148.88;100.00;76258.66;4996976;28;20089;-79
2023/01/05 08:32:17;;;;;;;14.02;2.88;;;;;;;-148.88;100.00;76240.38;4979555;28;20026;-79
2023/01/05 08:34:43;;;;;;;20.95;3.80;;;;;;;-148.88;100.00;76260.69;4997081;28;20073;-78
2023/01/05 08:37:08;;;;;;;10.05;3.25;;;;;;;-148.88;100.00;76260.69;4997618;28;20057;-79
2023/01/05 08:39:34;;;;;;;19.48;5.25;;;;;;;-148.88;100.00;76260.69;4997844;28;20026;-78
2023/01/05 08:42:00;;;;;;;20.05;5.45;;;;;;;-148.88;100.00;76252.56;4979793;28;20026;-77
2023/01/05 08:44:25;;;;;;;13.80;3.15;;;;;;;-148.88;100.00;76256.63;4997421;28;20109;-79
2023/01/05 08:46:51;;;;;;;15.70;3.65;;;;;;;-148.88;100.00;76252.56;4996893;28;20069;-79
2023/01/05 08:49:16;;;;;;;18.85;5.22;;;;;;;-148.88;100.00;76254.59;4979893;28;20019;-79
2023/01/05 08:51:41;;;;;;;13.98;3.25;;;;;;;-148.88;100.00;76244.44;4979232;28;20030;-78
2023/01/05 08:54:07;;;;;;;12.98;2.70;;;;;;;-148.88;100.00;76242.41;4979055;28;20117;-77
2023/01/05 08:56:32;;;;;;;13.95;3.45;;;;;;;-148.88;100.00;76240.38;4995697;28;20449;-78
2023/01/05 08:59:00;;;;;;;12.85;2.97;;;;;;;-148.88;100.00;76256.63;4996093;28;20073;-77
2023/01/05 09:01:25;;;;;;;14.23;3.00;;;;;;;-148.88;100.00;76252.56;4996243;28;20053;-77
2023/01/05 09:03:51;;;;;;;16.02;2.92;;;;;;;-148.88;100.00;76264.75;4995715;28;20479;-78
2023/01/05 09:06:17;;;;;;;20.50;4.88;;;;;;;-148.88;100.00;76260.69;4996310;28;20471;-78
2023/01/05 09:08:43;;;;;;;15.48;3.30;;;;;;;-148.88;100.00;76266.78;4979324;28;20081;-78
2023/01/05 09:11:12;;;;;;;17.30;3.83;;;;;;;-148.88;100.00;76252.56;4979021;28;20025;-79
2023/01/05 09:13:38;;;;;;;20.08;3.55;;;;;;;-148.88;100.00;76276.94;4979327;28;20501;-79
2023/01/05 09:16:09;;;;;;;15.02;3.45;;;;;;;-148.88;100.00;76264.75;4997865;28;20037;-81
2023/01/05 09:18:35;;;;;;;17.67;3.45;;;;;;;-148.88;100.00;76274.91;5000514;28;20018;-81
2023/01/05 09:21:00;;;;;;;13.57;3.67;;;;;;;-148.88;100.00;76281.00;4997325;28;20037;-81
2023/01/05 09:23:26;;;;;;;15.73;3.65;;;;;;;-148.88;100.00;76281.00;4998446;28;20027;-81
2023/01/05 09:25:51;;;;;;;16.90;3.25;;;;;;;-148.88;100.00;76281.00;5000210;28;20022;-79
2023/01/05 09:28:16;;;;;;;15.90;3.33;;;;;;;-148.88;100.00;76281.00;4987148;28;20057;-81
2023/01/05 09:30:42;;;;;;;18.77;5.07;;;;;;;-148.88;100.00;76276.94;4989285;28;20026;-80
2023/01/05 09:33:07;;;;;;;11.43;3.38;;;;;;;-148.88;100.00;76281.00;4999323;28;20030;-80
2023/01/05 09:35:32;;;;;;;18.23;4.95;;;;;;;-148.88;100.00;76274.91;4995480;28;20026;-80
2023/01/05 09:37:58;;;;;;;19.80;5.72;;;;;;;-148.88;100.00;76297.25;4995799;28;20026;-81
2023/01/05 09:40:24;;;;;;;12.25;2.75;;;;;;;-148.88;100.00;76305.38;4978257;28;20121;-81
2023/01/05 09:42:50;;;;;;;14.82;2.92;;;;;;;-148.88;100.00;76305.38;4979075;28;20026;-81
2023/01/05 09:45:24;;;;;;;16.17;3.47;;;;;;;-148.88;100.00;76299.28;4979258;28;20033;-81
2023/01/05 09:47:50;;;;;;;20.48;5.90;;;;;;;-148.88;100.00;76305.38;4979702;28;20033;-81
2023/01/05 09:50:19;;;;;;;23.80;5.68;;;;;;;-148.88;100.00;76305.38;4979673;28;20022;-82
2023/01/05 09:52:46;;;;;;;21.60;5.38;;;;;;;-148.88;100.00;76299.28;4979084;28;20018;-81
2023/01/05 09:55:23;;;;;;;11.65;3.63;;;;;;;-148.88;100.00;76301.31;4996515;28;20077;-81
2023/01/05 09:57:57;;;;;;;15.27;3.92;;;;;;;-148.88;100.00;76307.41;4996854;28;20395;-81
2023/01/05 10:00:25;;;;;;;22.10;5.50;;;;;;;-148.88;100.00;76297.25;4996766;28;20073;-81
2023/01/05 10:02:57;;;;;;;18.42;4.80;;;;;;;-148.88;100.00;76297.25;4996283;28;20088;-81
2023/01/05 10:05:26;;;;;;;25.23;4.20;;;;;;;-148.88;100.00;76301.31;4979107;28;20072;-81
2023/01/05 10:08:12;;;;;;;16.73;3.40;;;;;;;-148.88;100.00;76305.38;4994572;28;20454;-80
2023/01/05 10:14:04;;;;;;;14.25;3.00;;;;;;;-148.88;100.00;76291.16;4989179;28;20114;-81
2023/01/05 10:16:30;;;;;;;16.40;3.58;;;;;;;-148.88;100.00;76295.22;4999873;28;20031;-80
2023/01/05 10:18:56;;;;;;;16.92;4.50;;;;;;;-148.88;100.00;76297.25;5000431;28;20023;-81
2023/01/05 10:21:36;;;;;;;19.23;4.95;;;;;;;-148.88;100.00;76305.38;4983393;28;20189;-81
2023/01/05 10:24:18;;;;;;;11.63;3.33;;;;;;;-148.88;100.00;76293.19;5000881;28;20060;-81
2023/01/05 10:26:59;;;;;;;13.18;2.88;;;;;;;-148.88;100.00;76291.16;4982562;28;20034;-81
2023/01/05 10:29:45;;;;;;;17.60;3.28;;;;;;;-148.88;100.00;76297.25;4999538;28;20027;-81
2023/01/05 10:32:30;;;;;;;17.20;4.85;;;;;;;-148.88;100.00;76281.00;4982522;28;20022;-81
2023/01/05 10:35:05;;;;;;;14.77;4.82;;;;;;;-148.88;100.00;76285.06;5000336;28;20106;-80
2023/01/05 10:37:46;;;;;;;8.88;3.08;;;;;;;-148.88;100.00;76293.19;4982057;28;20490;-81
2023/01/05 10:40:27;;;;;;;14.77;4.82;;;;;;;-148.88;100.00;76301.31;4982281;28;20523;-81
2023/01/05 10:43:17;;;;;;;12.88;5.15;;;;;;;-148.88;100.00;76289.13;4982637;28;20034;-80
2023/01/05 10:45:43;;;;;;;12.55;3.53;;;;;;;-148.88;100.00;76297.25;4979737;28;20022;-79
2023/01/05 10:48:14;;;;;;;10.50;2.90;;;;;;;-148.88;100.00;76321.63;4980280;28;20026;-80
2023/01/05 10:50:42;;;;;;;10.25;3.17;;;;;;;-148.88;100.00;76303.34;4998551;28;20073;-81
2023/01/05 10:53:21;;;;;;;15.82;4.32;;;;;;;-148.88;100.00;76305.38;4981421;28;20030;-80
2023/01/05 10:56:22;;;;;;;17.67;4.95;;;;;;;-148.88;100.00;76307.41;4981636;28;20056;-81
2023/01/05 10:58:47;;;;;;;13.52;2.97;;;;;;;-148.88;100.00;76297.25;4982915;28;20119;-80
2023/01/05 11:01:23;;;;;;;19.17;4.90;;;;;;;-148.88;100.00;76303.34;4986849;28;20022;-79
2023/01/05 11:03:54;;;;;;;19.25;5.05;;;;;;;-148.88;100.00;76301.31;4983820;28;20030;-82
2023/01/05 11:06:24;;;;;;;15.65;3.53;;;;;;;-148.88;100.00;76305.38;4985054;28;20433;-79
2023/01/05 11:08:49;;;;;;;13.38;3.05;;;;;;;-148.88;100.00;76313.50;4983864;28;20034;-81
2023/01/05 11:11:24;;;;;;;13.38;5.00;;;;;;;-148.88;100.00;76317.56;4984343;28;20077;-81
2023/01/05 11:13:53;;;;;;;16.13;3.72;;;;;;;-148.88;100.00;76337.88;5001747;28;20037;-80
2023/01/05 11:16:28;;;;;;;15.40;3.65;;;;;;;-148.88;100.00;76350.06;4984278;28;20022;-81
2023/01/05 11:19:01;;;;;;;15.68;4.55;;;;;;;-148.88;100.00;76350.06;4985278;28;20026;-80
2023/01/05 11:21:42;;;;;;;15.88;4.05;;;;;;;-148.88;100.00;76360.22;4997784;28;20104;-79
2023/01/05 11:24:27;;;;;;;13.70;2.58;;;;;;;-148.88;100.00;76358.19;4979627;28;20033;-79
2023/01/05 11:26:57;;;;;;;18.83;4.63;;;;;;;-148.88;100.00;76350.06;4997273;28;20022;-80
2023/01/05 11:29:23;;;;;;;13.90;3.10;;;;;;;-148.88;100.00;76362.25;5001293;28;20148;-81
2023/01/05 11:32:01;;;;;;;15.90;4.60;;;;;;;-148.88;100.00;76374.44;4983204;28;20069;-81
2023/01/05 11:34:32;;;;;;;15.32;3.22;;;;;;;-148.88;100.00;76366.31;4983353;28;20018;-81
2023/01/05 11:37:00;;;;;;;9.98;3.70;;;;;;;-148.88;100.00;76370.38;4983554;28;20026;-81
2023/01/05 11:39:30;;;;;;;17.65;5.30;;;;;;;-148.88;100.00;76372.41;4985081;28;20026;-80
2023/01/05 11:42:12;;;;;;;13.00;2.97;;;;;;;-148.88;100.00;76366.31;5002138;28;20022;-80
2023/01/05 11:44:40;;;;;;;16.98;3.38;;;;;;;-148.88;100.00;76362.25;4983772;28;20022;-81
2023/01/05 11:47:07;;;;;;;15.85;3.47;;;;;;;-148.88;100.00;76346.00;4984051;28;20062;-80